sensor_id;sensor_type;location;lat;lon;timestamp;pressure;altitude;pressure_sealevel;temperature;humidity
21980;BME280;11154;48.558;9.234;2024-01-07T00:01:21;96856.91;;;11.74;80.42
21980;BME280;11154;48.558;9.234;2024-01-07T00:03:23;96859.59;;;11.74;80.38
21980;BME280;11154;48.558;9.234;2024-01-07T00:05:26;96856.53;;;11.77;80.43
21980;BME280;11154;48.558;9.234;2024-01-07T00:07:27;96860.84;;;11.78;80.22
21980;BME280;11154;48.558;9.234;2024-01-07T00:09:29;96861.50;;;11.80;80.25
21980;BME280;11154;48.558;9.234;2024-01-07T00:11:30;96864.16;;;11.80;79.98
21980;BME280;11154;48.558;9.234;2024-01-07T00:13:32;96863.16;;;11.81;80.03
21980;BME280;11154;48.558;9.234;2024-01-07T00:15:34;96861.69;;;11.78;80.13
21980;BME280;11154;48.558;9.234;2024-01-07T00:17:35;96870.50;;;11.79;80.31
21980;BME280;11154;48.558;9.234;2024-01-07T00:19:37;96864.72;;;11.75;80.12
21980;BME280;11154;48.558;9.234;2024-01-07T00:21:40;96866.56;;;11.75;80.15
21980;BME280;11154;48.558;9.234;2024-01-07T00:23:41;96865.72;;;11.74;80.18
21980;BME280;11154;48.558;9.234;2024-01-07T00:25:43;96863.25;;;11.73;80.19
21980;BME280;11154;48.558;9.234;2024-01-07T00:27:44;96860.25;;;11.76;80.39
21980;BME280;11154;48.558;9.234;2024-01-07T00:29:46;96865.72;;;11.74;80.42
21980;BME280;11154;48.558;9.234;2024-01-07T00:31:48;96863.59;;;11.70;80.39
21980;BME280;11154;48.558;9.234;2024-01-07T00:33:49;96869.97;;;11.69;80.82
21980;BME280;11154;48.558;9.234;2024-01-07T00:35:51;96867.31;;;11.69;80.64
21980;BME280;11154;48.558;9.234;2024-01-07T00:37:54;96859.31;;;11.69;80.86
21980;BME280;11154;48.558;9.234;2024-01-07T00:39:56;96862.78;;;11.69;80.49
21980;BME280;11154;48.558;9.234;2024-01-07T00:41:58;96863.16;;;11.66;80.88
21980;BME280;11154;48.558;9.234;2024-01-07T00:44:00;96862.72;;;11.63;80.96
21980;BME280;11154;48.558;9.234;2024-01-07T00:46:01;96860.69;;;11.65;81.05
21980;BME280;11154;48.558;9.234;2024-01-07T00:48:03;96864.00;;;11.67;80.77
21980;BME280;11154;48.558;9.234;2024-01-07T00:50:05;96852.50;;;11.66;80.85
21980;BME280;11154;48.558;9.234;2024-01-07T00:52:06;96855.75;;;11.62;80.81
21980;BME280;11154;48.558;9.234;2024-01-07T00:54:09;96865.38;;;11.63;80.80
21980;BME280;11154;48.558;9.234;2024-01-07T00:56:10;96860.06;;;11.63;81.08
21980;BME280;11154;48.558;9.234;2024-01-07T00:58:12;96865.06;;;11.58;81.22
21980;BME280;11154;48.558;9.234;2024-01-07T01:00:14;96864.91;;;11.59;81.13
21980;BME280;11154;48.558;9.234;2024-01-07T01:02:14;96867.19;;;11.62;81.19
21980;BME280;11154;48.558;9.234;2024-01-07T01:04:16;96861.88;;;11.62;81.16
21980;BME280;11154;48.558;9.234;2024-01-07T01:06:18;96867.41;;;11.61;81.27
21980;BME280;11154;48.558;9.234;2024-01-07T01:08:19;96867.41;;;11.61;81.29
21980;BME280;11154;48.558;9.234;2024-01-07T01:10:22;96858.47;;;11.54;81.27
21980;BME280;11154;48.558;9.234;2024-01-07T01:12:24;96867.47;;;11.53;81.86
21980;BME280;11154;48.558;9.234;2024-01-07T01:14:26;96866.28;;;11.55;81.92
21980;BME280;11154;48.558;9.234;2024-01-07T01:16:28;96873.63;;;11.53;81.66
21980;BME280;11154;48.558;9.234;2024-01-07T01:18:29;96874.25;;;11.55;81.73
21980;BME280;11154;48.558;9.234;2024-01-07T01:20:31;96870.59;;;11.56;81.91
21980;BME280;11154;48.558;9.234;2024-01-07T01:22:34;96878.59;;;11.56;81.73
21980;BME280;11154;48.558;9.234;2024-01-07T01:24:35;96881.44;;;11.55;81.63
21980;BME280;11154;48.558;9.234;2024-01-07T01:26:38;96867.13;;;11.56;81.74
21980;BME280;11154;48.558;9.234;2024-01-07T01:28:40;96880.44;;;11.56;81.67
21980;BME280;11154;48.558;9.234;2024-01-07T01:30:40;96873.63;;;11.53;81.88
21980;BME280;11154;48.558;9.234;2024-01-07T01:32:42;96882.25;;;11.55;81.80
21980;BME280;11154;48.558;9.234;2024-01-07T01:34:44;96881.44;;;11.55;81.98
21980;BME280;11154;48.558;9.234;2024-01-07T01:36:46;96881.44;;;11.55;81.85
21980;BME280;11154;48.558;9.234;2024-01-07T01:38:47;96877.94;;;11.54;81.82
21980;BME280;11154;48.558;9.234;2024-01-07T01:40:51;96876.47;;;11.52;81.89
21980;BME280;11154;48.558;9.234;2024-01-07T01:42:53;96885.44;;;11.51;81.91
21980;BME280;11154;48.558;9.234;2024-01-07T01:44:55;96881.78;;;11.52;82.05
21980;BME280;11154;48.558;9.234;2024-01-07T01:47:00;96884.44;;;11.52;81.84
21980;BME280;11154;48.558;9.234;2024-01-07T01:49:02;96887.28;;;11.50;82.04
21980;BME280;11154;48.558;9.234;2024-01-07T01:51:04;96880.47;;;11.48;82.32
21980;BME280;11154;48.558;9.234;2024-01-07T01:53:06;96882.94;;;11.49;81.88
21980;BME280;11154;48.558;9.234;2024-01-07T01:55:07;96876.81;;;11.49;82.19
21980;BME280;11154;48.558;9.234;2024-01-07T01:57:13;96876.81;;;11.49;82.05
21980;BME280;11154;48.558;9.234;2024-01-07T01:59:17;96875.16;;;11.48;81.96
21980;BME280;11154;48.558;9.234;2024-01-07T02:01:19;96872.56;;;11.40;82.38
21980;BME280;11154;48.558;9.234;2024-01-07T02:03:21;96868.25;;;11.39;82.47
21980;BME280;11154;48.558;9.234;2024-01-07T02:05:23;96843.16;;;9.47;91.60
21980;BME280;11154;48.558;9.234;2024-01-07T02:07:25;96842.50;;;8.83;96.99
21980;BME280;11154;48.558;9.234;2024-01-07T02:09:26;96847.13;;;8.49;100.00
21980;BME280;11154;48.558;9.234;2024-01-07T02:11:28;96849.25;;;8.30;100.00
21980;BME280;11154;48.558;9.234;2024-01-07T02:13:30;96853.38;;;8.16;100.00
21980;BME280;11154;48.558;9.234;2024-01-07T02:15:33;96854.31;;;8.07;100.00
21980;BME280;11154;48.558;9.234;2024-01-07T02:17:35;96854.16;;;8.01;100.00
21980;BME280;11154;48.558;9.234;2024-01-07T02:19:37;96853.81;;;7.96;100.00
21980;BME280;11154;48.558;9.234;2024-01-07T02:21:38;96853.31;;;7.92;100.00
21980;BME280;11154;48.558;9.234;2024-01-07T02:23:40;96857.13;;;7.90;100.00
21980;BME280;11154;48.558;9.234;2024-01-07T02:25:43;96856.44;;;7.88;100.00
21980;BME280;11154;48.558;9.234;2024-01-07T02:27:45;96853.97;;;7.87;100.00
21980;BME280;11154;48.558;9.234;2024-01-07T02:29:46;96847.81;;;7.86;100.00
21980;BME280;11154;48.558;9.234;2024-01-07T02:31:48;96852.28;;;7.86;100.00
21980;BME280;11154;48.558;9.234;2024-01-07T02:33:50;96854.25;;;7.84;100.00
21980;BME280;11154;48.558;9.234;2024-01-07T02:35:50;96862.19;;;7.84;100.00
21980;BME280;11154;48.558;9.234;2024-01-07T02:37:52;96860.53;;;7.83;100.00
21980;BME280;11154;48.558;9.234;2024-01-07T02:39:53;96854.59;;;7.81;100.00
21980;BME280;11154;48.558;9.234;2024-01-07T02:41:56;96857.09;;;7.82;100.00
21980;BME280;11154;48.558;9.234;2024-01-07T02:43:58;96861.56;;;7.82;100.00
21980;BME280;11154;48.558;9.234;2024-01-07T02:46:00;96858.91;;;7.82;100.00
21980;BME280;11154;48.558;9.234;2024-01-07T02:48:01;96857.25;;;7.81;100.00
21980;BME280;11154;48.558;9.234;2024-01-07T02:50:03;96854.59;;;7.81;100.00
21980;BME280;11154;48.558;9.234;2024-01-07T02:52:05;96853.09;;;7.78;100.00
21980;BME280;11154;48.558;9.234;2024-01-07T02:54:06;96849.63;;;7.78;100.00
21980;BME280;11154;48.558;9.234;2024-01-07T02:56:08;96851.28;;;7.79;100.00
21980;BME280;11154;48.558;9.234;2024-01-07T02:58:10;96859.22;;;7.79;100.00
21980;BME280;11154;48.558;9.234;2024-01-07T03:00:12;96858.06;;;7.81;100.00
21980;BME280;11154;48.558;9.234;2024-01-07T03:02:14;96860.53;;;7.83;100.00
21980;BME280;11154;48.558;9.234;2024-01-07T03:04:16;96863.19;;;7.83;100.00
21980;BME280;11154;48.558;9.234;2024-01-07T03:06:18;96859.72;;;7.82;100.00
21980;BME280;11154;48.558;9.234;2024-01-07T03:08:19;96865.84;;;7.83;100.00
21980;BME280;11154;48.558;9.234;2024-01-07T03:10:21;96866.16;;;7.80;100.00
21980;BME280;11154;48.558;9.234;2024-01-07T03:12:22;96865.84;;;7.83;100.00
21980;BME280;11154;48.558;9.234;2024-01-07T03:14:25;96867.50;;;7.84;100.00
21980;BME280;11154;48.558;9.234;2024-01-07T03:16:27;96867.50;;;7.84;100.00
21980;BME280;11154;48.558;9.234;2024-01-07T03:18:29;96862.19;;;7.84;100.00
21980;BME280;11154;48.558;9.234;2024-01-07T03:20:30;96870.31;;;7.82;100.00
21980;BME280;11154;48.558;9.234;2024-01-07T03:22:32;96871.81;;;7.85;100.00
21980;BME280;11154;48.558;9.234;2024-01-07T03:24:32;96867.50;;;7.84;100.00
21980;BME280;11154;48.558;9.234;2024-01-07T03:26:34;96878.09;;;7.84;100.00
21980;BME280;11154;48.558;9.234;2024-01-07T03:28:36;96878.09;;;7.84;100.00
21980;BME280;11154;48.558;9.234;2024-01-07T03:30:38;96870.13;;;7.84;100.00
21980;BME280;11154;48.558;9.234;2024-01-07T03:32:40;96869.50;;;7.82;100.00
21980;BME280;11154;48.558;9.234;2024-01-07T03:34:42;96875.91;;;7.79;100.00
21980;BME280;11154;48.558;9.234;2024-01-07T03:36:43;96873.13;;;7.81;100.00
21980;BME280;11154;48.558;9.234;2024-01-07T03:38:45;96881.88;;;7.81;100.00
21980;BME280;11154;48.558;9.234;2024-01-07T03:40:46;96880.09;;;7.82;100.00
21980;BME280;11154;48.558;9.234;2024-01-07T03:42:48;96872.13;;;7.82;100.00
21980;BME280;11154;48.558;9.234;2024-01-07T03:44:50;96874.78;;;7.82;100.00
21980;BME280;11154;48.558;9.234;2024-01-07T03:46:52;96873.94;;;7.81;100.00
21980;BME280;11154;48.558;9.234;2024-01-07T03:48:54;96877.44;;;7.82;100.00
21980;BME280;11154;48.558;9.234;2024-01-07T03:50:56;96882.03;;;7.80;100.00
21980;BME280;11154;48.558;9.234;2024-01-07T03:52:57;96876.75;;;7.80;100.00
21980;BME280;11154;48.558;9.234;2024-01-07T03:54:59;96882.03;;;7.80;100.00
21980;BME280;11154;48.558;9.234;2024-01-07T03:57:00;96885.38;;;7.82;100.00
21980;BME280;11154;48.558;9.234;2024-01-07T03:59:02;96884.53;;;7.81;100.00
21980;BME280;11154;48.558;9.234;2024-01-07T04:01:04;96890.81;;;7.80;100.00
21980;BME280;11154;48.558;9.234;2024-01-07T04:03:07;96906.88;;;8.44;100.00
21980;BME280;11154;48.558;9.234;2024-01-07T04:05:08;96915.34;;;9.11;100.00
21980;BME280;11154;48.558;9.234;2024-01-07T04:07:10;96914.00;;;9.38;100.00
21980;BME280;11154;48.558;9.234;2024-01-07T04:09:11;96914.94;;;9.61;99.89
21980;BME280;11154;48.558;9.234;2024-01-07T04:11:13;96922.50;;;9.80;97.46
21980;BME280;11154;48.558;9.234;2024-01-07T04:13:15;96914.50;;;9.96;95.18
21980;BME280;11154;48.558;9.234;2024-01-07T04:15:16;96914.78;;;10.17;94.08
21980;BME280;11154;48.558;9.234;2024-01-07T04:17:18;96915.66;;;10.32;92.32
21980;BME280;11154;48.558;9.234;2024-01-07T04:19:21;96917.91;;;10.43;91.15
21980;BME280;11154;48.558;9.234;2024-01-07T04:21:23;96916.69;;;10.53;89.90
21980;BME280;11154;48.558;9.234;2024-01-07T04:23:24;96909.97;;;10.65;88.76
21980;BME280;11154;48.558;9.234;2024-01-07T04:25:26;96923.03;;;10.75;88.02
21980;BME280;11154;48.558;9.234;2024-01-07T04:27:27;96919.69;;;10.80;87.35
21980;BME280;11154;48.558;9.234;2024-01-07T04:29:28;96924.63;;;10.83;86.86
21980;BME280;11154;48.558;9.234;2024-01-07T04:31:30;96926.97;;;10.86;86.38
21980;BME280;11154;48.558;9.234;2024-01-07T04:33:31;96931.91;;;10.89;86.24
21980;BME280;11154;48.558;9.234;2024-01-07T04:35:34;96925.34;;;11.00;85.77
21980;BME280;11154;48.558;9.234;2024-01-07T04:37:37;96924.63;;;11.06;85.47
21980;BME280;11154;48.558;9.234;2024-01-07T04:39:39;96930.06;;;11.12;84.80
21980;BME280;11154;48.558;9.234;2024-01-07T04:41:40;96932.34;;;11.15;84.51
21980;BME280;11154;48.558;9.234;2024-01-07T04:43:42;96938.50;;;11.16;83.82
21980;BME280;11154;48.558;9.234;2024-01-07T04:45:44;96939.53;;;11.15;83.83
21980;BME280;11154;48.558;9.234;2024-01-07T04:47:45;96939.16;;;11.18;83.38
21980;BME280;11154;48.558;9.234;2024-01-07T04:49:47;96942.34;;;11.13;83.44
21980;BME280;11154;48.558;9.234;2024-01-07T04:51:49;96931.88;;;11.12;82.97
21980;BME280;11154;48.558;9.234;2024-01-07T04:53:50;96937.50;;;11.17;82.64
21980;BME280;11154;48.558;9.234;2024-01-07T04:55:52;96937.34;;;11.18;82.56
21980;BME280;11154;48.558;9.234;2024-01-07T04:57:54;96940.81;;;11.19;82.39
21980;BME280;11154;48.558;9.234;2024-01-07T04:59:55;96949.91;;;11.24;82.02
21980;BME280;11154;48.558;9.234;2024-01-07T05:01:57;96949.75;;;11.26;81.51
21980;BME280;11154;48.558;9.234;2024-01-07T05:03:58;96946.06;;;11.27;81.69
21980;BME280;11154;48.558;9.234;2024-01-07T05:06:00;96951.28;;;11.20;81.68
21980;BME280;11154;48.558;9.234;2024-01-07T05:08:04;96952.47;;;11.18;81.15
21980;BME280;11154;48.558;9.234;2024-01-07T05:10:06;96947.66;;;11.13;81.26
21980;BME280;11154;48.558;9.234;2024-01-07T05:12:08;96949.22;;;11.08;81.49
21980;BME280;11154;48.558;9.234;2024-01-07T05:14:10;96955.53;;;11.07;81.39
21980;BME280;11154;48.558;9.234;2024-01-07T05:16:18;96950.94;;;11.01;80.97
21980;BME280;11154;48.558;9.234;2024-01-07T05:18:20;96953.78;;;10.99;81.22
21980;BME280;11154;48.558;9.234;2024-01-07T05:20:22;96962.28;;;10.95;80.81
21980;BME280;11154;48.558;9.234;2024-01-07T05:22:24;96958.31;;;10.91;80.93
21980;BME280;11154;48.558;9.234;2024-01-07T05:24:26;96955.84;;;10.89;80.89
21980;BME280;11154;48.558;9.234;2024-01-07T05:26:27;96959.34;;;10.90;80.63
21980;BME280;11154;48.558;9.234;2024-01-07T05:28:28;96967.63;;;10.95;80.58
21980;BME280;11154;48.558;9.234;2024-01-07T05:30:30;96970.19;;;11.03;80.37
21980;BME280;11154;48.558;9.234;2024-01-07T05:32:31;96962.53;;;11.08;80.00
21980;BME280;11154;48.558;9.234;2024-01-07T05:34:33;96967.47;;;11.11;79.78
21980;BME280;11154;48.558;9.234;2024-01-07T05:36:34;96962.53;;;11.08;79.97
21980;BME280;11154;48.558;9.234;2024-01-07T05:38:36;96976.22;;;10.97;80.19
21980;BME280;11154;48.558;9.234;2024-01-07T05:40:39;96975.59;;;10.95;80.31
21980;BME280;11154;48.558;9.234;2024-01-07T05:42:41;96976.41;;;10.95;80.43
21980;BME280;11154;48.558;9.234;2024-01-07T05:44:42;96974.94;;;10.93;80.38
21980;BME280;11154;48.558;9.234;2024-01-07T05:46:43;96973.47;;;10.90;80.35
21980;BME280;11154;48.558;9.234;2024-01-07T05:48:46;96979.06;;;10.95;80.24
21980;BME280;11154;48.558;9.234;2024-01-07T05:50:48;96978.88;;;10.97;80.16
21980;BME280;11154;48.558;9.234;2024-01-07T05:52:50;96988.53;;;10.98;79.67
21980;BME280;11154;48.558;9.234;2024-01-07T05:54:52;96983.91;;;10.92;79.92
21980;BME280;11154;48.558;9.234;2024-01-07T05:56:54;96985.53;;;11.01;79.45
21980;BME280;11154;48.558;9.234;2024-01-07T05:58:55;96980.84;;;11.03;79.44
21980;BME280;11154;48.558;9.234;2024-01-07T06:00:57;96990.31;;;11.05;78.92
21980;BME280;11154;48.558;9.234;2024-01-07T06:02:58;96993.28;;;11.10;79.01
21980;BME280;11154;48.558;9.234;2024-01-07T06:05:01;96990.22;;;11.13;78.47
21980;BME280;11154;48.558;9.234;2024-01-07T06:07:03;96988.22;;;11.15;78.61
21980;BME280;11154;48.558;9.234;2024-01-07T06:09:05;96993.38;;;11.17;78.40
21980;BME280;11154;48.558;9.234;2024-01-07T06:11:07;96986.84;;;11.19;78.34
21980;BME280;11154;48.558;9.234;2024-01-07T06:13:10;96997.16;;;11.22;78.21
21980;BME280;11154;48.558;9.234;2024-01-07T06:15:11;96995.50;;;11.21;78.06
21980;BME280;11154;48.558;9.234;2024-01-07T06:17:13;96997.16;;;11.22;77.75
21980;BME280;11154;48.558;9.234;2024-01-07T06:19:16;96994.84;;;11.19;77.91
21980;BME280;11154;48.558;9.234;2024-01-07T06:21:18;97002.00;;;11.19;78.06
21980;BME280;11154;48.558;9.234;2024-01-07T06:23:20;97001.19;;;11.18;78.20
21980;BME280;11154;48.558;9.234;2024-01-07T06:25:21;97003.91;;;11.10;78.22
21980;BME280;11154;48.558;9.234;2024-01-07T06:27:23;97005.09;;;11.08;78.33
21980;BME280;11154;48.558;9.234;2024-01-07T06:29:26;97004.25;;;11.07;78.29
21980;BME280;11154;48.558;9.234;2024-01-07T06:31:28;97005.31;;;10.98;78.65
21980;BME280;11154;48.558;9.234;2024-01-07T06:33:29;97007.81;;;11.00;78.68
21980;BME280;11154;48.558;9.234;2024-01-07T06:35:31;97012.34;;;10.91;78.97
21980;BME280;11154;48.558;9.234;2024-01-07T06:37:34;97007.84;;;10.92;78.76
21980;BME280;11154;48.558;9.234;2024-01-07T06:39:35;97010.00;;;10.96;79.01
21980;BME280;11154;48.558;9.234;2024-01-07T06:41:38;97012.31;;;10.99;78.82
21980;BME280;11154;48.558;9.234;2024-01-07T06:43:39;97015.13;;;10.98;78.60
21980;BME280;11154;48.558;9.234;2024-01-07T06:45:43;97017.63;;;10.99;78.50
21980;BME280;11154;48.558;9.234;2024-01-07T06:47:44;97023.56;;;11.01;78.34
21980;BME280;11154;48.558;9.234;2024-01-07T06:49:46;97024.06;;;11.05;78.15
21980;BME280;11154;48.558;9.234;2024-01-07T06:51:48;97028.09;;;11.01;78.23
21980;BME280;11154;48.558;9.234;2024-01-07T06:53:49;97020.09;;;11.01;78.40
21980;BME280;11154;48.558;9.234;2024-01-07T06:55:51;97026.06;;;11.03;78.20
21980;BME280;11154;48.558;9.234;2024-01-07T06:57:53;97028.19;;;11.07;78.38
21980;BME280;11154;48.558;9.234;2024-01-07T06:59:53;97035.84;;;11.10;78.27
21980;BME280;11154;48.558;9.234;2024-01-07T07:01:56;97036.66;;;11.11;77.81
21980;BME280;11154;48.558;9.234;2024-01-07T07:03:58;97036.19;;;11.07;77.78
21980;BME280;11154;48.558;9.234;2024-01-07T07:06:00;97049.31;;;11.09;77.76
21980;BME280;11154;48.558;9.234;2024-01-07T07:08:02;97039.84;;;11.06;77.63
21980;BME280;11154;48.558;9.234;2024-01-07T07:10:03;97043.03;;;11.02;77.99
21980;BME280;11154;48.558;9.234;2024-01-07T07:12:05;97042.19;;;11.01;78.20
21980;BME280;11154;48.558;9.234;2024-01-07T07:14:08;97043.88;;;11.02;78.26
21980;BME280;11154;48.558;9.234;2024-01-07T07:16:09;97049.88;;;10.96;78.54
21980;BME280;11154;48.558;9.234;2024-01-07T07:18:13;97050.59;;;10.90;78.72
21980;BME280;11154;48.558;9.234;2024-01-07T07:20:15;97052.94;;;10.85;79.24
21980;BME280;11154;48.558;9.234;2024-01-07T07:22:16;97056.94;;;10.81;79.52
21980;BME280;11154;48.558;9.234;2024-01-07T07:24:18;97056.31;;;10.79;79.45
21980;BME280;11154;48.558;9.234;2024-01-07T07:26:20;97066.94;;;10.79;79.89
21980;BME280;11154;48.558;9.234;2024-01-07T07:28:21;97063.44;;;10.79;79.86
21980;BME280;11154;48.558;9.234;2024-01-07T07:30:23;97070.63;;;10.71;80.12
21980;BME280;11154;48.558;9.234;2024-01-07T07:32:25;97074.00;;;10.65;80.39
21980;BME280;11154;48.558;9.234;2024-01-07T07:34:28;97070.31;;;10.66;80.42
21980;BME280;11154;48.558;9.234;2024-01-07T07:36:29;97074.97;;;10.64;80.70
21980;BME280;11154;48.558;9.234;2024-01-07T07:38:31;97073.16;;;10.64;81.12
21980;BME280;11154;48.558;9.234;2024-01-07T07:40:32;97078.63;;;10.63;81.48
21980;BME280;11154;48.558;9.234;2024-01-07T07:42:33;97086.28;;;10.66;81.24
21980;BME280;11154;48.558;9.234;2024-01-07T07:44:35;97083.13;;;10.62;81.42
21980;BME280;11154;48.558;9.234;2024-01-07T07:46:36;97090.44;;;10.60;81.62
21980;BME280;11154;48.558;9.234;2024-01-07T07:48:38;97080.66;;;10.61;82.00
21980;BME280;11154;48.558;9.234;2024-01-07T07:50:41;97079.69;;;10.54;81.93
21980;BME280;11154;48.558;9.234;2024-01-07T07:52:43;97086.66;;;10.55;81.81
21980;BME280;11154;48.558;9.234;2024-01-07T07:54:45;97090.44;;;10.60;81.77
21980;BME280;11154;48.558;9.234;2024-01-07T07:56:45;97087.28;;;10.65;81.80
21980;BME280;11154;48.558;9.234;2024-01-07T07:58:48;97092.25;;;10.68;81.70
21980;BME280;11154;48.558;9.234;2024-01-07T08:00:50;97093.56;;;10.72;81.66
21980;BME280;11154;48.558;9.234;2024-01-07T08:02:51;97095.53;;;10.77;81.36
21980;BME280;11154;48.558;9.234;2024-01-07T08:04:53;97090.50;;;10.82;81.03
21980;BME280;11154;48.558;9.234;2024-01-07T08:06:56;97098.78;;;10.87;80.90
21980;BME280;11154;48.558;9.234;2024-01-07T08:08:57;97097.16;;;10.86;80.57
21980;BME280;11154;48.558;9.234;2024-01-07T08:10:59;97096.47;;;10.92;80.52
21980;BME280;11154;48.558;9.234;2024-01-07T08:13:01;97096.81;;;10.89;79.71
21980;BME280;11154;48.558;9.234;2024-01-07T08:15:02;97093.16;;;10.90;79.79
21980;BME280;11154;48.558;9.234;2024-01-07T08:17:05;97098.28;;;10.92;79.41
21980;BME280;11154;48.558;9.234;2024-01-07T08:19:06;97097.66;;;10.90;78.91
21980;BME280;11154;48.558;9.234;2024-01-07T08:21:08;97105.66;;;10.82;79.05
21980;BME280;11154;48.558;9.234;2024-01-07T08:23:12;97108.16;;;10.76;78.92
21980;BME280;11154;48.558;9.234;2024-01-07T08:25:13;97114.66;;;10.73;78.98
21980;BME280;11154;48.558;9.234;2024-01-07T08:27:15;97109.16;;;10.75;78.86
21980;BME280;11154;48.558;9.234;2024-01-07T08:29:17;97116.13;;;10.76;78.68
21980;BME280;11154;48.558;9.234;2024-01-07T08:31:18;97109.84;;;10.69;78.45
21980;BME280;11154;48.558;9.234;2024-01-07T08:33:20;97112.50;;;10.69;78.33
21980;BME280;11154;48.558;9.234;2024-01-07T08:35:21;97124.31;;;10.66;78.52
21980;BME280;11154;48.558;9.234;2024-01-07T08:37:23;97117.53;;;10.64;78.52
21980;BME280;11154;48.558;9.234;2024-01-07T08:39:26;97118.88;;;10.60;78.60
21980;BME280;11154;48.558;9.234;2024-01-07T08:41:29;97121.84;;;10.57;78.92
21980;BME280;11154;48.558;9.234;2024-01-07T08:43:30;97120.75;;;10.51;78.72
21980;BME280;11154;48.558;9.234;2024-01-07T08:45:32;97127.56;;;10.38;78.78
21980;BME280;11154;48.558;9.234;2024-01-07T08:47:34;97139.91;;;10.23;78.14
21980;BME280;11154;48.558;9.234;2024-01-07T08:49:36;97139.41;;;10.11;77.20
21980;BME280;11154;48.558;9.234;2024-01-07T08:51:38;97142.25;;;10.10;76.72
21980;BME280;11154;48.558;9.234;2024-01-07T08:53:40;97143.06;;;10.18;77.17
21980;BME280;11154;48.558;9.234;2024-01-07T08:55:43;97148.88;;;10.14;76.42
21980;BME280;11154;48.558;9.234;2024-01-07T08:57:45;97150.38;;;10.01;74.38
21980;BME280;11154;48.558;9.234;2024-01-07T08:59:49;97154.81;;;9.92;74.03
21980;BME280;11154;48.558;9.234;2024-01-07T09:01:50;97156.47;;;9.93;74.31
21980;BME280;11154;48.558;9.234;2024-01-07T09:03:52;97158.00;;;9.88;74.00
21980;BME280;11154;48.558;9.234;2024-01-07T09:05:53;97161.66;;;9.95;74.18
21980;BME280;11154;48.558;9.234;2024-01-07T09:07:55;97163.81;;;9.99;73.92
21980;BME280;11154;48.558;9.234;2024-01-07T09:09:57;97171.78;;;10.07;74.02
21980;BME280;11154;48.558;9.234;2024-01-07T09:12:01;97164.31;;;10.03;73.19
21980;BME280;11154;48.558;9.234;2024-01-07T09:14:04;97174.41;;;10.31;73.34
21980;BME280;11154;48.558;9.234;2024-01-07T09:16:05;97166.94;;;10.42;72.52
21980;BME280;11154;48.558;9.234;2024-01-07T09:18:09;97176.56;;;10.51;72.43
21980;BME280;11154;48.558;9.234;2024-01-07T09:20:11;97178.00;;;10.62;72.55
21980;BME280;11154;48.558;9.234;2024-01-07T09:22:13;97174.03;;;10.50;71.35
21980;BME280;11154;48.558;9.234;2024-01-07T09:24:14;97175.75;;;10.27;70.77
21980;BME280;11154;48.558;9.234;2024-01-07T09:26:16;97180.91;;;10.12;70.49
21980;BME280;11154;48.558;9.234;2024-01-07T09:28:19;97180.06;;;10.12;70.98
21980;BME280;11154;48.558;9.234;2024-01-07T09:30:21;97182.75;;;10.04;70.90
21980;BME280;11154;48.558;9.234;2024-01-07T09:32:23;97173.25;;;9.94;71.04
21980;BME280;11154;48.558;9.234;2024-01-07T09:34:24;97179.56;;;9.93;71.88
21980;BME280;11154;48.558;9.234;2024-01-07T09:36:26;97189.00;;;9.87;71.52
21980;BME280;11154;48.558;9.234;2024-01-07T09:38:27;97187.50;;;9.77;70.83
21980;BME280;11154;48.558;9.234;2024-01-07T09:40:28;97187.00;;;9.73;70.54
21980;BME280;11154;48.558;9.234;2024-01-07T09:42:29;97187.16;;;9.72;70.75
21980;BME280;11154;48.558;9.234;2024-01-07T09:44:32;97181.34;;;9.68;70.43
21980;BME280;11154;48.558;9.234;2024-01-07T09:46:37;97184.19;;;9.67;70.53
21980;BME280;11154;48.558;9.234;2024-01-07T09:48:39;97185.00;;;9.67;70.96
21980;BME280;11154;48.558;9.234;2024-01-07T09:50:41;97193.94;;;9.66;70.30
21980;BME280;11154;48.558;9.234;2024-01-07T09:52:43;97191.31;;;9.58;69.32
21980;BME280;11154;48.558;9.234;2024-01-07T09:54:54;97192.13;;;9.59;69.78
21980;BME280;11154;48.558;9.234;2024-01-07T09:57:01;97197.13;;;9.62;69.72
21980;BME280;11154;48.558;9.234;2024-01-07T09:59:02;97194.66;;;9.76;70.33
21980;BME280;11154;48.558;9.234;2024-01-07T10:01:06;97194.00;;;9.82;70.18
21980;BME280;11154;48.558;9.234;2024-01-07T10:03:07;97193.00;;;9.91;70.02
21980;BME280;11154;48.558;9.234;2024-01-07T10:05:08;97205.25;;;9.92;69.25
21980;BME280;11154;48.558;9.234;2024-01-07T10:07:10;97207.44;;;9.97;68.90
21980;BME280;11154;48.558;9.234;2024-01-07T10:09:12;97197.81;;;9.96;68.24
21980;BME280;11154;48.558;9.234;2024-01-07T10:11:13;97197.69;;;9.97;67.55
21980;BME280;11154;48.558;9.234;2024-01-07T10:13:15;97199.63;;;9.95;67.24
21980;BME280;11154;48.558;9.234;2024-01-07T10:15:16;97208.31;;;9.97;67.50
21980;BME280;11154;48.558;9.234;2024-01-07T10:17:19;97198.66;;;9.96;66.78
21980;BME280;11154;48.558;9.234;2024-01-07T10:19:24;97206.28;;;10.39;69.75
21980;BME280;11154;48.558;9.234;2024-01-07T10:21:26;97196.66;;;10.30;64.89
21980;BME280;11154;48.558;9.234;2024-01-07T10:23:28;97203.63;;;10.39;65.15
21980;BME280;11154;48.558;9.234;2024-01-07T10:25:32;97200.97;;;10.31;64.63
21980;BME280;11154;48.558;9.234;2024-01-07T10:27:35;97203.00;;;10.21;65.17
21980;BME280;11154;48.558;9.234;2024-01-07T10:29:38;97188.41;;;10.17;65.99
21980;BME280;11154;48.558;9.234;2024-01-07T10:31:39;97210.78;;;10.22;65.10
21980;BME280;11154;48.558;9.234;2024-01-07T10:33:42;97201.81;;;10.23;64.38
21980;BME280;11154;48.558;9.234;2024-01-07T10:35:50;97205.31;;;10.24;64.67
21980;BME280;11154;48.558;9.234;2024-01-07T10:37:54;97211.13;;;10.27;64.99
21980;BME280;11154;48.558;9.234;2024-01-07T10:39:58;97211.75;;;10.69;64.14
21980;BME280;11154;48.558;9.234;2024-01-07T10:42:04;97205.66;;;10.99;61.47
21980;BME280;11154;48.558;9.234;2024-01-07T10:44:06;97203.97;;;11.06;60.55
21980;BME280;11154;48.558;9.234;2024-01-07T10:46:09;97210.44;;;11.11;60.46
21980;BME280;11154;48.558;9.234;2024-01-07T10:48:12;97204.38;;;11.25;60.60